sensor_id;sensor_type;location;lat;lon;timestamp;temperature;humidity
76878;DHT22;65843;50.692;12.844;2023-05-01T00:00:16;21.00;52.70
76878;DHT22;65843;50.692;12.844;2023-05-01T00:01:18;21.00;52.60
76878;DHT22;65843;50.692;12.844;2023-05-01T00:02:18;21.00;52.70
76878;DHT22;65843;50.692;12.844;2023-05-01T00:03:19;21.00;52.70
76878;DHT22;65843;50.692;12.844;2023-05-01T00:04:21;21.00;52.70
76878;DHT22;65843;50.692;12.844;2023-05-01T00:05:22;21.00;52.70
76878;DHT22;65843;50.692;12.844;2023-05-01T00:06:23;21.00;52.70
76878;DHT22;65843;50.692;12.844;2023-05-01T00:07:23;21.00;52.80
76878;DHT22;65843;50.692;12.844;2023-05-01T00:08:25;21.00;52.90
76878;DHT22;65843;50.692;12.844;2023-05-01T00:09:26;21.00;52.70
76878;DHT22;65843;50.692;12.844;2023-05-01T00:10:27;21.00;52.90
76878;DHT22;65843;50.692;12.844;2023-05-01T00:11:28;21.00;52.90
76878;DHT22;65843;50.692;12.844;2023-05-01T00:12:29;21.00;52.90
76878;DHT22;65843;50.692;12.844;2023-05-01T00:13:30;21.00;52.90
76878;DHT22;65843;50.692;12.844;2023-05-01T00:14:31;21.00;52.90
76878;DHT22;65843;50.692;12.844;2023-05-01T00:15:32;21.00;52.90
76878;DHT22;65843;50.692;12.844;2023-05-01T00:16:33;21.00;52.90
76878;DHT22;65843;50.692;12.844;2023-05-01T00:17:35;21.00;52.90
76878;DHT22;65843;50.692;12.844;2023-05-01T00:18:36;21.00;52.90
76878;DHT22;65843;50.692;12.844;2023-05-01T00:19:37;21.00;52.90
76878;DHT22;65843;50.692;12.844;2023-05-01T00:20:38;21.00;53.00
76878;DHT22;65843;50.692;12.844;2023-05-01T00:21:39;21.00;53.00
76878;DHT22;65843;50.692;12.844;2023-05-01T00:22:41;21.00;53.00
76878;DHT22;65843;50.692;12.844;2023-05-01T00:23:42;21.00;53.00
76878;DHT22;65843;50.692;12.844;2023-05-01T00:24:43;21.00;53.00
76878;DHT22;65843;50.692;12.844;2023-05-01T00:25:43;21.00;53.00
76878;DHT22;65843;50.692;12.844;2023-05-01T00:26:45;21.00;53.10
76878;DHT22;65843;50.692;12.844;2023-05-01T00:27:46;21.00;53.10
76878;DHT22;65843;50.692;12.844;2023-05-01T00:28:47;21.00;53.10
76878;DHT22;65843;50.692;12.844;2023-05-01T00:29:50;21.00;53.20
76878;DHT22;65843;50.692;12.844;2023-05-01T00:30:51;21.00;53.20
76878;DHT22;65843;50.692;12.844;2023-05-01T00:31:52;21.00;53.20
76878;DHT22;65843;50.692;12.844;2023-05-01T00:32:53;21.00;53.20
76878;DHT22;65843;50.692;12.844;2023-05-01T00:33:54;21.00;53.20
76878;DHT22;65843;50.692;12.844;2023-05-01T00:34:56;21.00;53.20
76878;DHT22;65843;50.692;12.844;2023-05-01T00:35:58;21.00;53.10
76878;DHT22;65843;50.692;12.844;2023-05-01T00:36:59;21.00;53.20
76878;DHT22;65843;50.692;12.844;2023-05-01T00:37:59;21.00;53.20
76878;DHT22;65843;50.692;12.844;2023-05-01T00:39:00;21.00;53.20
76878;DHT22;65843;50.692;12.844;2023-05-01T00:40:01;21.00;53.20
76878;DHT22;65843;50.692;12.844;2023-05-01T00:41:02;21.00;53.20
76878;DHT22;65843;50.692;12.844;2023-05-01T00:42:03;21.00;53.30
76878;DHT22;65843;50.692;12.844;2023-05-01T00:43:04;21.00;53.20
76878;DHT22;65843;50.692;12.844;2023-05-01T00:44:05;21.00;53.30
76878;DHT22;65843;50.692;12.844;2023-05-01T00:45:06;21.00;53.30
76878;DHT22;65843;50.692;12.844;2023-05-01T00:46:07;21.00;53.30
76878;DHT22;65843;50.692;12.844;2023-05-01T00:47:09;21.00;53.30
76878;DHT22;65843;50.692;12.844;2023-05-01T00:48:10;21.00;53.30
76878;DHT22;65843;50.692;12.844;2023-05-01T00:49:11;21.00;53.40
76878;DHT22;65843;50.692;12.844;2023-05-01T00:50:13;20.90;53.40
76878;DHT22;65843;50.692;12.844;2023-05-01T00:51:14;20.90;53.40
76878;DHT22;65843;50.692;12.844;2023-05-01T00:52:15;21.00;53.50
76878;DHT22;65843;50.692;12.844;2023-05-01T00:53:16;21.00;53.40
76878;DHT22;65843;50.692;12.844;2023-05-01T00:54:17;21.00;53.40
76878;DHT22;65843;50.692;12.844;2023-05-01T00:55:19;21.00;53.40
76878;DHT22;65843;50.692;12.844;2023-05-01T00:56:21;21.00;53.50
76878;DHT22;65843;50.692;12.844;2023-05-01T00:57:22;20.90;53.50
76878;DHT22;65843;50.692;12.844;2023-05-01T00:58:23;21.00;53.50
76878;DHT22;65843;50.692;12.844;2023-05-01T00:59:24;21.00;53.50
76878;DHT22;65843;50.692;12.844;2023-05-01T01:00:25;21.00;53.50
76878;DHT22;65843;50.692;12.844;2023-05-01T01:01:25;21.00;53.50
76878;DHT22;65843;50.692;12.844;2023-05-01T01:02:28;21.00;53.50
76878;DHT22;65843;50.692;12.844;2023-05-01T01:03:29;21.00;53.60
76878;DHT22;65843;50.692;12.844;2023-05-01T01:04:31;21.00;53.60
76878;DHT22;65843;50.692;12.844;2023-05-01T01:05:34;21.00;53.50
76878;DHT22;65843;50.692;12.844;2023-05-01T01:07:50;21.00;53.60
76878;DHT22;65843;50.692;12.844;2023-05-01T01:08:58;21.00;53.60
76878;DHT22;65843;50.692;12.844;2023-05-01T01:13:23;21.00;53.60
76878;DHT22;65843;50.692;12.844;2023-05-01T01:14:30;21.00;53.70
76878;DHT22;65843;50.692;12.844;2023-05-01T01:15:34;21.00;53.70
76878;DHT22;65843;50.692;12.844;2023-05-01T01:19:42;21.00;53.80
76878;DHT22;65843;50.692;12.844;2023-05-01T01:22:27;21.00;54.00
76878;DHT22;65843;50.692;12.844;2023-05-01T01:27:24;21.00;54.00
76878;DHT22;65843;50.692;12.844;2023-05-01T01:31:19;21.00;54.00
76878;DHT22;65843;50.692;12.844;2023-05-01T01:33:38;21.00;54.10
76878;DHT22;65843;50.692;12.844;2023-05-01T01:34:46;21.00;54.10
76878;DHT22;65843;50.692;12.844;2023-05-01T01:35:55;21.00;54.20
76878;DHT22;65843;50.692;12.844;2023-05-01T01:37:04;21.00;54.20
76878;DHT22;65843;50.692;12.844;2023-05-01T01:39:11;21.00;54.20
76878;DHT22;65843;50.692;12.844;2023-05-01T01:40:14;21.00;54.20
76878;DHT22;65843;50.692;12.844;2023-05-01T01:41:21;21.10;54.20
76878;DHT22;65843;50.692;12.844;2023-05-01T01:42:25;21.00;54.30
76878;DHT22;65843;50.692;12.844;2023-05-01T01:43:29;21.10;54.30
76878;DHT22;65843;50.692;12.844;2023-05-01T01:44:33;21.10;54.30
76878;DHT22;65843;50.692;12.844;2023-05-01T01:45:40;21.10;54.30
76878;DHT22;65843;50.692;12.844;2023-05-01T01:46:41;21.10;54.30
76878;DHT22;65843;50.692;12.844;2023-05-01T01:47:42;21.10;54.30
76878;DHT22;65843;50.692;12.844;2023-05-01T01:48:45;21.10;54.30
76878;DHT22;65843;50.692;12.844;2023-05-01T01:49:48;21.10;54.30
76878;DHT22;65843;50.692;12.844;2023-05-01T01:50:51;21.10;54.30
76878;DHT22;65843;50.692;12.844;2023-05-01T01:51:53;21.10;54.30
76878;DHT22;65843;50.692;12.844;2023-05-01T01:52:56;21.10;54.30
76878;DHT22;65843;50.692;12.844;2023-05-01T01:53:58;21.10;54.30
76878;DHT22;65843;50.692;12.844;2023-05-01T01:55:02;21.10;54.30
76878;DHT22;65843;50.692;12.844;2023-05-01T01:56:05;21.10;54.40
76878;DHT22;65843;50.692;12.844;2023-05-01T01:57:06;21.10;54.30
76878;DHT22;65843;50.692;12.844;2023-05-01T01:58:08;21.10;54.30
76878;DHT22;65843;50.692;12.844;2023-05-01T01:59:10;21.10;54.40
76878;DHT22;65843;50.692;12.844;2023-05-01T02:00:11;21.10;54.40
76878;DHT22;65843;50.692;12.844;2023-05-01T02:01:13;21.10;54.40
76878;DHT22;65843;50.692;12.844;2023-05-01T02:02:16;21.10;54.40
76878;DHT22;65843;50.692;12.844;2023-05-01T02:03:18;21.10;54.50
76878;DHT22;65843;50.692;12.844;2023-05-01T02:04:20;21.10;54.40
76878;DHT22;65843;50.692;12.844;2023-05-01T02:05:21;21.10;54.50
76878;DHT22;65843;50.692;12.844;2023-05-01T02:06:24;21.10;54.50
76878;DHT22;65843;50.692;12.844;2023-05-01T02:07:25;21.10;54.50
76878;DHT22;65843;50.692;12.844;2023-05-01T02:08:29;21.10;54.50
76878;DHT22;65843;50.692;12.844;2023-05-01T02:09:30;21.10;54.50
76878;DHT22;65843;50.692;12.844;2023-05-01T02:10:32;21.10;54.60
76878;DHT22;65843;50.692;12.844;2023-05-01T02:11:34;21.10;54.50
76878;DHT22;65843;50.692;12.844;2023-05-01T02:12:35;21.10;54.50
76878;DHT22;65843;50.692;12.844;2023-05-01T02:13:37;21.10;54.60
76878;DHT22;65843;50.692;12.844;2023-05-01T02:14:38;21.10;54.60
76878;DHT22;65843;50.692;12.844;2023-05-01T02:15:40;21.10;54.60
76878;DHT22;65843;50.692;12.844;2023-05-01T02:16:41;21.10;54.50
76878;DHT22;65843;50.692;12.844;2023-05-01T02:17:43;21.10;54.60
76878;DHT22;65843;50.692;12.844;2023-05-01T02:18:45;21.10;54.60
76878;DHT22;65843;50.692;12.844;2023-05-01T02:19:46;21.10;54.60
76878;DHT22;65843;50.692;12.844;2023-05-01T02:20:47;21.10;54.60
76878;DHT22;65843;50.692;12.844;2023-05-01T02:21:48;21.10;54.60
76878;DHT22;65843;50.692;12.844;2023-05-01T02:22:50;21.10;54.70
76878;DHT22;65843;50.692;12.844;2023-05-01T02:23:53;21.10;54.70
76878;DHT22;65843;50.692;12.844;2023-05-01T02:24:54;21.10;54.70
76878;DHT22;65843;50.692;12.844;2023-05-01T02:25:56;21.10;54.70
76878;DHT22;65843;50.692;12.844;2023-05-01T02:27:02;21.10;54.70
76878;DHT22;65843;50.692;12.844;2023-05-01T02:28:07;21.10;54.70
76878;DHT22;65843;50.692;12.844;2023-05-01T02:29:09;21.10;54.70
76878;DHT22;65843;50.692;12.844;2023-05-01T02:30:10;21.10;54.70
76878;DHT22;65843;50.692;12.844;2023-05-01T02:31:11;21.10;54.70
76878;DHT22;65843;50.692;12.844;2023-05-01T02:32:12;21.10;54.70
76878;DHT22;65843;50.692;12.844;2023-05-01T02:33:13;21.10;54.70
76878;DHT22;65843;50.692;12.844;2023-05-01T02:34:14;21.10;54.70
76878;DHT22;65843;50.692;12.844;2023-05-01T02:35:15;21.10;54.70
76878;DHT22;65843;50.692;12.844;2023-05-01T02:36:16;21.10;54.70
76878;DHT22;65843;50.692;12.844;2023-05-01T02:37:17;21.10;54.80
76878;DHT22;65843;50.692;12.844;2023-05-01T02:38:18;21.10;54.70
76878;DHT22;65843;50.692;12.844;2023-05-01T02:39:19;21.10;54.70
76878;DHT22;65843;50.692;12.844;2023-05-01T02:40:20;21.10;54.80
76878;DHT22;65843;50.692;12.844;2023-05-01T02:41:21;21.10;54.80
76878;DHT22;65843;50.692;12.844;2023-05-01T02:42:24;21.10;54.80
76878;DHT22;65843;50.692;12.844;2023-05-01T02:43:26;21.10;54.80
76878;DHT22;65843;50.692;12.844;2023-05-01T02:44:27;21.10;54.80
76878;DHT22;65843;50.692;12.844;2023-05-01T02:45:31;21.10;54.80
76878;DHT22;65843;50.692;12.844;2023-05-01T02:46:35;21.10;54.80
76878;DHT22;65843;50.692;12.844;2023-05-01T02:47:38;21.10;54.80
76878;DHT22;65843;50.692;12.844;2023-05-01T02:48:39;21.10;54.80
76878;DHT22;65843;50.692;12.844;2023-05-01T02:49:41;21.10;54.80
76878;DHT22;65843;50.692;12.844;2023-05-01T02:50:43;21.10;54.80
76878;DHT22;65843;50.692;12.844;2023-05-01T02:51:45;21.10;54.80
76878;DHT22;65843;50.692;12.844;2023-05-01T02:52:46;21.10;54.80
76878;DHT22;65843;50.692;12.844;2023-05-01T02:53:47;21.10;54.80
76878;DHT22;65843;50.692;12.844;2023-05-01T02:54:49;21.10;54.80
76878;DHT22;65843;50.692;12.844;2023-05-01T02:55:50;21.10;54.80
76878;DHT22;65843;50.692;12.844;2023-05-01T02:56:51;21.10;54.90
76878;DHT22;65843;50.692;12.844;2023-05-01T02:57:56;21.10;54.90
76878;DHT22;65843;50.692;12.844;2023-05-01T02:58:57;21.10;54.90
76878;DHT22;65843;50.692;12.844;2023-05-01T02:59:58;21.10;55.00
76878;DHT22;65843;50.692;12.844;2023-05-01T03:00:59;21.10;55.00
76878;DHT22;65843;50.692;12.844;2023-05-01T03:02:00;21.10;55.00
76878;DHT22;65843;50.692;12.844;2023-05-01T03:03:01;21.10;55.00
76878;DHT22;65843;50.692;12.844;2023-05-01T03:04:02;21.10;55.00
76878;DHT22;65843;50.692;12.844;2023-05-01T03:05:03;21.10;55.00
76878;DHT22;65843;50.692;12.844;2023-05-01T03:06:04;21.10;55.00
76878;DHT22;65843;50.692;12.844;2023-05-01T03:07:05;21.10;55.00
76878;DHT22;65843;50.692;12.844;2023-05-01T03:08:06;21.10;55.00
76878;DHT22;65843;50.692;12.844;2023-05-01T03:09:07;21.10;55.00
76878;DHT22;65843;50.692;12.844;2023-05-01T03:10:08;21.10;55.00
76878;DHT22;65843;50.692;12.844;2023-05-01T03:11:09;21.10;55.00
76878;DHT22;65843;50.692;12.844;2023-05-01T03:12:10;21.10;55.00
76878;DHT22;65843;50.692;12.844;2023-05-01T03:13:11;21.10;55.00
76878;DHT22;65843;50.692;12.844;2023-05-01T03:14:12;21.10;55.00
76878;DHT22;65843;50.692;12.844;2023-05-01T03:15:13;21.10;55.10
76878;DHT22;65843;50.692;12.844;2023-05-01T03:16:14;21.10;55.10
76878;DHT22;65843;50.692;12.844;2023-05-01T03:17:15;21.10;55.10
76878;DHT22;65843;50.692;12.844;2023-05-01T03:18:16;21.10;55.10
76878;DHT22;65843;50.692;12.844;2023-05-01T03:19:17;21.10;55.10
76878;DHT22;65843;50.692;12.844;2023-05-01T03:20:17;21.10;55.10
76878;DHT22;65843;50.692;12.844;2023-05-01T03:21:18;21.10;55.10
76878;DHT22;65843;50.692;12.844;2023-05-01T03:22:20;21.10;55.10
76878;DHT22;65843;50.692;12.844;2023-05-01T03:23:21;21.10;55.10
76878;DHT22;65843;50.692;12.844;2023-05-01T03:24:23;21.10;55.10
76878;DHT22;65843;50.692;12.844;2023-05-01T03:25:23;21.10;55.20
76878;DHT22;65843;50.692;12.844;2023-05-01T03:26:25;21.10;55.10
76878;DHT22;65843;50.692;12.844;2023-05-01T03:27:27;21.10;55.20
76878;DHT22;65843;50.692;12.844;2023-05-01T03:28:27;21.10;55.00
76878;DHT22;65843;50.692;12.844;2023-05-01T03:29:28;21.10;55.20
76878;DHT22;65843;50.692;12.844;2023-05-01T03:30:31;21.10;55.10
76878;DHT22;65843;50.692;12.844;2023-05-01T03:31:32;21.10;55.20
76878;DHT22;65843;50.692;12.844;2023-05-01T03:32:33;21.10;55.20
76878;DHT22;65843;50.692;12.844;2023-05-01T03:33:34;21.10;55.20
76878;DHT22;65843;50.692;12.844;2023-05-01T03:34:35;21.10;55.20
76878;DHT22;65843;50.692;12.844;2023-05-01T03:35:36;21.10;55.20
76878;DHT22;65843;50.692;12.844;2023-05-01T03:36:37;21.10;55.20
76878;DHT22;65843;50.692;12.844;2023-05-01T03:37:38;21.10;55.30
76878;DHT22;65843;50.692;12.844;2023-05-01T03:38:39;21.10;55.30
76878;DHT22;65843;50.692;12.844;2023-05-01T03:39:40;21.10;55.20
76878;DHT22;65843;50.692;12.844;2023-05-01T03:40:41;21.10;55.30
76878;DHT22;65843;50.692;12.844;2023-05-01T03:41:42;21.10;55.30
76878;DHT22;65843;50.692;12.844;2023-05-01T03:42:43;21.10;55.30
76878;DHT22;65843;50.692;12.844;2023-05-01T03:43:44;21.10;55.30
76878;DHT22;65843;50.692;12.844;2023-05-01T03:44:45;21.10;55.30
76878;DHT22;65843;50.692;12.844;2023-05-01T03:45:45;21.10;55.30
76878;DHT22;65843;50.692;12.844;2023-05-01T03:46:46;21.10;55.30
76878;DHT22;65843;50.692;12.844;2023-05-01T03:47:47;21.10;55.30
76878;DHT22;65843;50.692;12.844;2023-05-01T03:48:48;21.10;55.30
76878;DHT22;65843;50.692;12.844;2023-05-01T03:49:49;21.10;55.30
76878;DHT22;65843;50.692;12.844;2023-05-01T03:50:50;21.10;55.30
76878;DHT22;65843;50.692;12.844;2023-05-01T03:51:51;21.10;55.30
76878;DHT22;65843;50.692;12.844;2023-05-01T03:52:52;21.10;55.30
76878;DHT22;65843;50.692;12.844;2023-05-01T03:53:53;21.10;55.30
76878;DHT22;65843;50.692;12.844;2023-05-01T03:54:58;21.10;55.30
76878;DHT22;65843;50.692;12.844;2023-05-01T03:55:59;21.10;55.30
76878;DHT22;65843;50.692;12.844;2023-05-01T03:57:00;21.10;55.30
76878;DHT22;65843;50.692;12.844;2023-05-01T03:58:00;21.10;55.40
76878;DHT22;65843;50.692;12.844;2023-05-01T03:59:02;21.10;55.40
76878;DHT22;65843;50.692;12.844;2023-05-01T04:00:03;21.10;55.40
76878;DHT22;65843;50.692;12.844;2023-05-01T04:01:06;21.10;55.40
76878;DHT22;65843;50.692;12.844;2023-05-01T04:02:07;21.10;55.30
76878;DHT22;65843;50.692;12.844;2023-05-01T04:03:08;21.10;55.40
76878;DHT22;65843;50.692;12.844;2023-05-01T04:04:09;21.10;55.40
76878;DHT22;65843;50.692;12.844;2023-05-01T04:05:10;21.10;55.40
76878;DHT22;65843;50.692;12.844;2023-05-01T04:06:11;21.10;55.50
76878;DHT22;65843;50.692;12.844;2023-05-01T04:07:13;21.10;55.50
76878;DHT22;65843;50.692;12.844;2023-05-01T04:08:13;21.10;55.50
76878;DHT22;65843;50.692;12.844;2023-05-01T04:09:15;21.10;55.50
76878;DHT22;65843;50.692;12.844;2023-05-01T04:10:16;21.10;55.50
76878;DHT22;65843;50.692;12.844;2023-05-01T04:11:17;21.10;55.50
76878;DHT22;65843;50.692;12.844;2023-05-01T04:12:18;21.10;55.50
76878;DHT22;65843;50.692;12.844;2023-05-01T04:13:19;21.10;55.50
76878;DHT22;65843;50.692;12.844;2023-05-01T04:14:19;21.10;55.40
76878;DHT22;65843;50.692;12.844;2023-05-01T04:15:20;21.20;55.50
76878;DHT22;65843;50.692;12.844;2023-05-01T04:16:22;21.20;55.50
76878;DHT22;65843;50.692;12.844;2023-05-01T04:17:23;21.20;55.40
76878;DHT22;65843;50.692;12.844;2023-05-01T04:18:25;21.20;55.40
76878;DHT22;65843;50.692;12.844;2023-05-01T04:19:26;21.20;55.40
76878;DHT22;65843;50.692;12.844;2023-05-01T04:20:26;21.20;55.40
76878;DHT22;65843;50.692;12.844;2023-05-01T04:21:27;21.20;55.30
76878;DHT22;65843;50.692;12.844;2023-05-01T04:22:28;21.20;55.30
76878;DHT22;65843;50.692;12.844;2023-05-01T04:23:29;21.20;55.30
76878;DHT22;65843;50.692;12.844;2023-05-01T04:24:30;21.30;55.30
76878;DHT22;65843;50.692;12.844;2023-05-01T04:25:32;21.20;55.20
76878;DHT22;65843;50.692;12.844;2023-05-01T04:26:33;21.20;55.20
76878;DHT22;65843;50.692;12.844;2023-05-01T04:27:33;21.20;55.20
76878;DHT22;65843;50.692;12.844;2023-05-01T04:28:34;21.20;55.10
76878;DHT22;65843;50.692;12.844;2023-05-01T04:29:35;21.20;55.10
76878;DHT22;65843;50.692;12.844;2023-05-01T04:30:36;21.20;55.20
76878;DHT22;65843;50.692;12.844;2023-05-01T04:31:37;21.20;55.10
76878;DHT22;65843;50.692;12.844;2023-05-01T04:32:38;21.20;55.10
76878;DHT22;65843;50.692;12.844;2023-05-01T04:33:39;21.20;55.10
76878;DHT22;65843;50.692;12.844;2023-05-01T04:34:40;21.20;55.00
76878;DHT22;65843;50.692;12.844;2023-05-01T04:35:41;21.20;55.10
76878;DHT22;65843;50.692;12.844;2023-05-01T04:36:43;21.20;55.00
76878;DHT22;65843;50.692;12.844;2023-05-01T04:37:44;21.10;55.00
76878;DHT22;65843;50.692;12.844;2023-05-01T04:38:45;21.10;55.00
76878;DHT22;65843;50.692;12.844;2023-05-01T04:39:46;21.10;55.00
76878;DHT22;65843;50.692;12.844;2023-05-01T04:40:47;21.10;55.10
76878;DHT22;65843;50.692;12.844;2023-05-01T04:41:48;21.10;55.00
76878;DHT22;65843;50.692;12.844;2023-05-01T04:42:49;21.10;55.10
76878;DHT22;65843;50.692;12.844;2023-05-01T04:43:50;21.10;55.10
76878;DHT22;65843;50.692;12.844;2023-05-01T04:44:52;21.10;55.10
76878;DHT22;65843;50.692;12.844;2023-05-01T04:45:53;21.10;55.00
76878;DHT22;65843;50.692;12.844;2023-05-01T04:46:54;21.10;55.00
76878;DHT22;65843;50.692;12.844;2023-05-01T04:47:55;21.10;55.00
76878;DHT22;65843;50.692;12.844;2023-05-01T04:48:56;21.10;55.10
76878;DHT22;65843;50.692;12.844;2023-05-01T04:49:57;21.10;55.10
76878;DHT22;65843;50.692;12.844;2023-05-01T04:50:58;21.10;55.10
76878;DHT22;65843;50.692;12.844;2023-05-01T04:51:59;21.10;55.10
76878;DHT22;65843;50.692;12.844;2023-05-01T04:53:00;21.10;55.10
76878;DHT22;65843;50.692;12.844;2023-05-01T04:54:00;21.10;55.10
76878;DHT22;65843;50.692;12.844;2023-05-01T04:55:01;21.10;55.10
76878;DHT22;65843;50.692;12.844;2023-05-01T04:56:03;21.10;55.00
76878;DHT22;65843;50.692;12.844;2023-05-01T04:57:04;21.10;55.10
76878;DHT22;65843;50.692;12.844;2023-05-01T04:58:05;21.10;55.10
76878;DHT22;65843;50.692;12.844;2023-05-01T04:59:06;21.10;55.10
76878;DHT22;65843;50.692;12.844;2023-05-01T05:00:07;21.10;55.10
76878;DHT22;65843;50.692;12.844;2023-05-01T05:01:08;21.10;55.10
76878;DHT22;65843;50.692;12.844;2023-05-01T05:02:09;21.10;55.10
76878;DHT22;65843;50.692;12.844;2023-05-01T05:03:10;21.10;55.10
76878;DHT22;65843;50.692;12.844;2023-05-01T05:04:11;21.10;55.10
76878;DHT22;65843;50.692;12.844;2023-05-01T05:05:12;21.10;55.00
76878;DHT22;65843;50.692;12.844;2023-05-01T05:06:13;21.10;55.10
76878;DHT22;65843;50.692;12.844;2023-05-01T05:07:14;21.10;55.10
76878;DHT22;65843;50.692;12.844;2023-05-01T05:08:15;21.10;55.10
76878;DHT22;65843;50.692;12.844;2023-05-01T05:09:16;21.10;55.10
76878;DHT22;65843;50.692;12.844;2023-05-01T05:10:17;21.10;55.00
76878;DHT22;65843;50.692;12.844;2023-05-01T05:11:18;21.10;55.10
76878;DHT22;65843;50.692;12.844;2023-05-01T05:12:19;21.10;55.10
76878;DHT22;65843;50.692;12.844;2023-05-01T05:13:20;21.10;55.10
76878;DHT22;65843;50.692;12.844;2023-05-01T05:14:21;21.10;55.10
76878;DHT22;65843;50.692;12.844;2023-05-01T05:15:22;21.10;55.10
76878;DHT22;65843;50.692;12.844;2023-05-01T05:16:23;21.10;55.10
76878;DHT22;65843;50.692;12.844;2023-05-01T05:17:23;21.10;55.10
76878;DHT22;65843;50.692;12.844;2023-05-01T05:18:25;21.10;55.10
76878;DHT22;65843;50.692;12.844;2023-05-01T05:19:26;21.10;55.10
76878;DHT22;65843;50.692;12.844;2023-05-01T05:20:27;21.10;55.10
76878;DHT22;65843;50.692;12.844;2023-05-01T05:21:27;21.10;55.10
76878;DHT22;65843;50.692;12.844;2023-05-01T05:22:28;21.10;55.10
76878;DHT22;65843;50.692;12.844;2023-05-01T05:23:29;21.10;55.10
76878;DHT22;65843;50.692;12.844;2023-05-01T05:24:32;21.10;55.10
76878;DHT22;65843;50.692;12.844;2023-05-01T05:25:33;21.10;55.10
76878;DHT22;65843;50.692;12.844;2023-05-01T05:26:34;21.10;55.20
76878;DHT22;65843;50.692;12.844;2023-05-01T05:27:35;21.10;55.20
76878;DHT22;65843;50.692;12.844;2023-05-01T05:28:37;21.10;55.20
76878;DHT22;65843;50.692;12.844;2023-05-01T05:29:38;21.10;55.20
76878;DHT22;65843;50.692;12.844;2023-05-01T05:30:39;21.10;55.10
76878;DHT22;65843;50.692;12.844;2023-05-01T05:31:40;21.10;55.20
76878;DHT22;65843;50.692;12.844;2023-05-01T05:32:41;21.10;55.30
76878;DHT22;65843;50.692;12.844;2023-05-01T05:33:42;21.10;55.20
76878;DHT22;65843;50.692;12.844;2023-05-01T05:34:44;21.10;55.30
76878;DHT22;65843;50.692;12.844;2023-05-01T05:35:45;21.20;55.20
76878;DHT22;65843;50.692;12.844;2023-05-01T05:36:46;21.20;55.20
76878;DHT22;65843;50.692;12.844;2023-05-01T05:37:47;21.20;55.20
76878;DHT22;65843;50.692;12.844;2023-05-01T05:38:47;21.20;55.20
76878;DHT22;65843;50.692;12.844;2023-05-01T05:39:48;21.20;55.20
76878;DHT22;65843;50.692;12.844;2023-05-01T05:40:49;21.30;55.10
76878;DHT22;65843;50.692;12.844;2023-05-01T05:41:50;21.30;55.10
76878;DHT22;65843;50.692;12.844;2023-05-01T05:42:53;21.30;55.20
76878;DHT22;65843;50.692;12.844;2023-05-01T05:43:54;21.30;55.10
76878;DHT22;65843;50.692;12.844;2023-05-01T05:44:55;21.30;55.20
76878;DHT22;65843;50.692;12.844;2023-05-01T05:45:56;21.30;55.10
76878;DHT22;65843;50.692;12.844;2023-05-01T05:46:58;21.30;55.10
76878;DHT22;65843;50.692;12.844;2023-05-01T05:47:59;21.30;55.10
76878;DHT22;65843;50.692;12.844;2023-05-01T05:49:00;21.40;55.00
76878;DHT22;65843;50.692;12.844;2023-05-01T05:50:00;21.40;55.10
76878;DHT22;65843;50.692;12.844;2023-05-01T05:51:01;21.40;55.00
76878;DHT22;65843;50.692;12.844;2023-05-01T05:52:02;21.40;55.00
76878;DHT22;65843;50.692;12.844;2023-05-01T05:53:03;21.40;54.90
76878;DHT22;65843;50.692;12.844;2023-05-01T05:54:04;21.50;55.00
76878;DHT22;65843;50.692;12.844;2023-05-01T05:55:05;21.50;55.00
76878;DHT22;65843;50.692;12.844;2023-05-01T05:56:06;21.50;55.00
76878;DHT22;65843;50.692;12.844;2023-05-01T05:57:07;21.50;54.90
76878;DHT22;65843;50.692;12.844;2023-05-01T05:58:08;21.50;54.90
76878;DHT22;65843;50.692;12.844;2023-05-01T05:59:09;21.50;54.80
76878;DHT22;65843;50.692;12.844;2023-05-01T06:00:10;21.50;54.90
76878;DHT22;65843;50.692;12.844;2023-05-01T06:01:11;21.50;54.80
76878;DHT22;65843;50.692;12.844;2023-05-01T06:02:12;21.60;54.80
76878;DHT22;65843;50.692;12.844;2023-05-01T06:03:13;21.60;54.80
76878;DHT22;65843;50.692;12.844;2023-05-01T06:04:14;21.60;54.70
76878;DHT22;65843;50.692;12.844;2023-05-01T06:05:15;21.70;54.80
76878;DHT22;65843;50.692;12.844;2023-05-01T06:06:16;21.70;54.80
76878;DHT22;65843;50.692;12.844;2023-05-01T06:07:17;21.70;54.70
76878;DHT22;65843;50.692;12.844;2023-05-01T06:08:18;21.70;54.70
76878;DHT22;65843;50.692;12.844;2023-05-01T06:09:19;21.70;54.70
76878;DHT22;65843;50.692;12.844;2023-05-01T06:10:21;21.70;54.70
76878;DHT22;65843;50.692;12.844;2023-05-01T06:11:22;21.70;54.70
76878;DHT22;65843;50.692;12.844;2023-05-01T06:12:23;21.70;54.70
76878;DHT22;65843;50.692;12.844;2023-05-01T06:13:24;21.70;54.60
76878;DHT22;65843;50.692;12.844;2023-05-01T06:14:25;21.70;54.60
76878;DHT22;65843;50.692;12.844;2023-05-01T06:15:26;21.80;54.60
76878;DHT22;65843;50.692;12.844;2023-05-01T06:16:26;21.80;54.50
76878;DHT22;65843;50.692;12.844;2023-05-01T06:17:27;21.80;54.50
76878;DHT22;65843;50.692;12.844;2023-05-01T06:18:28;21.80;54.50
76878;DHT22;65843;50.692;12.844;2023-05-01T06:19:30;21.80;54.50
76878;DHT22;65843;50.692;12.844;2023-05-01T06:20:31;21.90;54.50
76878;DHT22;65843;50.692;12.844;2023-05-01T06:21:32;21.90;54.50
76878;DHT22;65843;50.692;12.844;2023-05-01T06:22:33;21.90;54.40
76878;DHT22;65843;50.692;12.844;2023-05-01T06:23:34;21.90;54.40
76878;DHT22;65843;50.692;12.844;2023-05-01T06:24:35;21.90;54.30
76878;DHT22;65843;50.692;12.844;2023-05-01T06:25:36;21.90;54.30
76878;DHT22;65843;50.692;12.844;2023-05-01T06:26:37;21.90;54.10
76878;DHT22;65843;50.692;12.844;2023-05-01T06:27:38;21.90;54.10
76878;DHT22;65843;50.692;12.844;2023-05-01T06:28:39;21.90;54.10
76878;DHT22;65843;50.692;12.844;2023-05-01T06:29:40;21.90;54.00
76878;DHT22;65843;50.692;12.844;2023-05-01T06:30:41;21.90;53.90
76878;DHT22;65843;50.692;12.844;2023-05-01T06:31:42;21.90;53.90
76878;DHT22;65843;50.692;12.844;2023-05-01T06:32:43;21.90;53.90
76878;DHT22;65843;50.692;12.844;2023-05-01T06:33:44;21.90;53.80
76878;DHT22;65843;50.692;12.844;2023-05-01T06:34:44;21.90;53.70
76878;DHT22;65843;50.692;12.844;2023-05-01T06:35:45;21.90;53.70
76878;DHT22;65843;50.692;12.844;2023-05-01T06:36:46;21.90;53.60
76878;DHT22;65843;50.692;12.844;2023-05-01T06:37:47;21.90;53.60
76878;DHT22;65843;50.692;12.844;2023-05-01T06:38:48;21.90;53.50
76878;DHT22;65843;50.692;12.844;2023-05-01T06:39:49;21.90;53.40